createdAt,value
2022-08-09T00:00:28.872Z,101184.94
2022-08-09T00:06:17.558Z,101174.13
2022-08-09T00:10:42.973Z,101183.88
2022-08-09T00:15:59.468Z,101185.63
2022-08-09T00:20:56.394Z,101195.16
2022-08-09T00:25:55.562Z,101187.38
2022-08-09T00:30:52.834Z,101191.00
2022-08-09T00:35:49.807Z,101198.56
2022-08-09T00:40:52.666Z,101198.38
2022-08-09T00:45:54.089Z,101205.47
2022-08-09T00:50:52.112Z,101210.91
2022-08-09T00:56:05.368Z,101197.25
2022-08-09T01:01:10.135Z,101197.19
2022-08-09T01:06:18.027Z,101203.88
2022-08-09T01:11:18.439Z,101200.81
2022-08-09T01:16:17.125Z,101209.91
2022-08-09T01:21:19.184Z,101210.19
2022-08-09T01:26:22.548Z,101202.88
2022-08-09T01:32:29.572Z,101205.56
2022-08-09T01:36:43.787Z,101208.41
2022-08-09T01:41:53.351Z,101202.38
2022-08-09T01:46:59.880Z,101199.91
2022-08-09T01:51:57.995Z,101175.88
2022-08-09T01:57:06.502Z,101200.41
2022-08-09T02:02:08.114Z,101193.72
2022-08-09T02:07:17.908Z,101192.19
2022-08-09T02:12:26.983Z,101200.63
2022-08-09T02:17:59.297Z,101201.59
2022-08-09T02:22:48.535Z,101195.97
2022-08-09T02:28:00.388Z,101195.88
2022-08-09T02:33:02.325Z,101198.97
2022-08-09T02:38:00.113Z,101191.59
2022-08-09T02:43:01.079Z,101186.53
2022-08-09T02:48:01.055Z,101186.31
2022-08-09T02:53:02.627Z,101194.44
2022-08-09T02:58:36.971Z,101193.44
2022-08-09T03:03:21.593Z,101201.56
2022-08-09T03:08:37.204Z,101195.69
2022-08-09T03:13:43.912Z,101190.19
2022-08-09T03:18:50.929Z,101189.97
2022-08-09T03:24:03.987Z,101193.31
2022-08-09T03:29:02.090Z,101201.28
2022-08-09T03:34:11.243Z,101207.13
2022-08-09T03:39:17.617Z,101204.97
2022-08-09T03:44:15.656Z,101203.41
2022-08-09T03:49:17.559Z,101195.84
2022-08-09T03:54:16.929Z,101179.41
2022-08-09T03:59:20.833Z,101202.69
2022-08-09T04:04:24.603Z,101182.06
2022-08-09T04:09:41.802Z,101190.50
2022-08-09T04:15:00.186Z,101200.47
2022-08-09T04:19:56.382Z,101209.09
2022-08-09T04:24:55.266Z,101211.84
2022-08-09T04:29:52.079Z,101209.75
2022-08-09T04:34:54.070Z,101221.44
2022-08-09T04:39:51.354Z,101231.00
2022-08-09T04:44:52.380Z,101229.91
2022-08-09T04:49:54.503Z,101223.66
2022-08-09T04:54:52.968Z,101221.28
2022-08-09T04:59:53.997Z,101203.03
2022-08-09T05:04:55.043Z,101226.81
2022-08-09T05:09:52.252Z,101227.78
2022-08-09T05:14:49.006Z,101226.38
2022-08-09T05:19:50.024Z,101229.56
2022-08-09T05:24:57.156Z,101224.91
2022-08-09T05:29:54.273Z,101225.41
2022-08-09T05:34:51.826Z,101231.97
2022-08-09T05:39:49.041Z,101235.59
2022-08-09T05:44:47.707Z,101220.97
2022-08-09T05:50:25.732Z,101240.81
2022-08-09T05:55:07.230Z,101238.34
2022-08-09T06:00:07.649Z,101241.81
2022-08-09T06:05:11.274Z,101246.44
2022-08-09T06:10:15.833Z,101246.47
2022-08-09T06:15:14.912Z,101249.78
2022-08-09T06:20:12.119Z,101255.56
2022-08-09T06:25:16.468Z,101249.69
2022-08-09T06:30:16.241Z,101252.91
2022-08-09T06:35:14.540Z,101249.22
2022-08-09T06:40:21.853Z,101259.28
2022-08-09T06:46:04.970Z,101261.28
2022-08-09T06:50:39.284Z,101261.81
2022-08-09T06:55:40.905Z,101260.97
2022-08-09T07:00:51.003Z,101256.75
2022-08-09T07:06:03.468Z,101251.81
2022-08-09T07:11:07.138Z,101262.63
2022-08-09T07:16:41.404Z,101267.22
2022-08-09T07:21:26.340Z,101268.09
2022-08-09T07:26:32.313Z,101269.09
2022-08-09T07:31:38.465Z,101273.47
2022-08-09T07:36:42.126Z,101270.66
2022-08-09T07:41:44.889Z,101262.06
2022-08-09T07:46:45.676Z,101254.97
2022-08-09T07:52:04.588Z,101250.63
2022-08-09T07:57:01.851Z,101251.28
2022-08-09T08:01:59.464Z,101242.19
2022-08-09T08:06:56.528Z,101246.06
2022-08-09T08:12:24.594Z,101248.56
2022-08-09T08:17:35.285Z,101224.81
2022-08-09T08:22:32.012Z,101237.25
2022-08-09T08:27:29.765Z,101238.03
2022-08-09T08:32:52.241Z,101230.63
2022-08-09T08:38:04.572Z,101230.06
2022-08-09T08:43:13.437Z,101232.94
2022-08-09T08:48:11.497Z,101230.78
2022-08-09T08:53:21.574Z,101197.84
2022-08-09T08:58:27.109Z,101219.22
2022-08-09T09:03:33.242Z,101218.22
2022-08-09T09:08:38.122Z,101211.00
2022-08-09T09:13:54.794Z,101215.75
2022-08-09T09:19:10.711Z,101203.28
2022-08-09T09:24:21.502Z,101206.81
2022-08-09T09:29:58.066Z,101195.47
2022-08-09T09:35:16.059Z,101187.09
2022-08-09T09:40:18.302Z,101175.84
2022-08-09T09:45:26.823Z,101179.53
2022-08-09T09:50:49.630Z,101175.38
2022-08-09T09:56:06.215Z,101166.66
2022-08-09T10:01:03.119Z,101156.75
2022-08-09T10:06:05.345Z,101157.03
2022-08-09T10:12:00.527Z,101130.06
2022-08-09T10:16:58.044Z,101139.59
2022-08-09T10:21:55.324Z,101145.72
2022-08-09T10:26:55.724Z,101138.84
2022-08-09T10:32:28.594Z,101136.91
2022-08-09T10:37:21.140Z,101116.56
2022-08-09T10:42:21.793Z,101116.59
2022-08-09T10:48:26.374Z,101103.69
2022-08-09T10:53:10.444Z,101113.41
2022-08-09T10:58:08.007Z,101104.41
2022-08-09T11:03:49.522Z,101099.63
2022-08-09T11:08:47.067Z,101098.56
2022-08-09T11:13:50.511Z,101098.47
2022-08-09T11:18:51.630Z,101085.31
2022-08-09T11:24:00.493Z,101085.41
2022-08-09T11:28:57.380Z,101067.91
2022-08-09T11:33:55.834Z,101067.44
2022-08-09T11:39:02.972Z,101072.28
2022-08-09T11:43:59.977Z,101062.06
2022-08-09T11:48:58.418Z,101068.19
2022-08-09T11:54:14.601Z,101054.19
2022-08-09T11:59:30.235Z,101038.78
2022-08-09T12:04:37.123Z,101032.22
2022-08-09T12:09:37.723Z,101023.19
2022-08-09T12:15:04.360Z,101021.38
2022-08-09T12:19:59.816Z,101017.03
2022-08-09T12:25:15.060Z,101001.63
2022-08-09T12:30:36.279Z,100995.63
2022-08-09T12:35:31.575Z,100994.41
2022-08-09T12:40:44.898Z,100988.97
2022-08-09T12:45:59.970Z,100978.31
2022-08-09T12:50:59.390Z,100974.16
2022-08-09T12:56:12.210Z,100973.63
2022-08-09T13:01:22.802Z,100962.84
2022-08-09T13:06:34.638Z,100963.63
2022-08-09T13:11:34.357Z,100956.06
2022-08-09T13:16:44.923Z,100949.50
2022-08-09T13:22:37.159Z,100946.00
2022-08-09T13:27:00.816Z,100945.84
2022-08-09T13:32:18.121Z,100954.56
2022-08-09T13:37:48.970Z,100959.22
2022-08-09T13:42:39.134Z,100947.13
2022-08-09T13:47:49.490Z,100936.38
2022-08-09T13:52:52.030Z,100943.47
2022-08-09T13:57:56.120Z,100941.38
2022-08-09T14:03:04.237Z,100939.34
2022-08-09T14:08:12.225Z,100939.19
2022-08-09T14:13:12.059Z,100935.47
2022-08-09T14:18:20.018Z,100932.03
2022-08-09T14:23:53.602Z,100929.09
2022-08-09T14:28:45.241Z,100913.09
2022-08-09T14:33:42.173Z,100917.97
2022-08-09T14:38:40.367Z,100910.84
2022-08-09T14:43:47.339Z,100907.53
2022-08-09T14:48:45.650Z,100920.06
2022-08-09T14:53:48.654Z,100901.72
2022-08-09T14:58:49.716Z,100927.66
2022-08-09T15:03:53.936Z,100929.78
2022-08-09T15:08:56.455Z,100937.81
2022-08-09T15:14:04.862Z,100950.66
2022-08-09T15:19:18.117Z,100947.19
2022-08-09T15:24:24.199Z,100953.91
2022-08-09T15:30:48.738Z,100963.84
2022-08-09T15:34:44.642Z,100960.22
2022-08-09T15:39:53.516Z,100942.53
2022-08-09T15:44:51.679Z,100942.16
2022-08-09T15:50:04.496Z,100950.00
2022-08-09T15:55:02.281Z,100943.28
2022-08-09T16:00:02.033Z,100935.97
2022-08-09T16:05:03.949Z,100935.38
2022-08-09T16:10:05.695Z,100934.53
2022-08-09T16:15:04.370Z,100932.13
2022-08-09T16:20:27.698Z,100935.38
2022-08-09T16:25:37.042Z,100930.66
2022-08-09T16:30:37.456Z,100938.50
2022-08-09T16:35:56.507Z,100950.72
2022-08-09T16:40:55.704Z,100944.66
2022-08-09T16:45:54.034Z,100953.69
2022-08-09T16:50:59.029Z,100951.34
2022-08-09T16:56:10.124Z,100937.94
2022-08-09T17:01:07.502Z,100943.16
2022-08-09T17:06:28.788Z,100953.72
2022-08-09T17:11:41.279Z,100963.50
2022-08-09T17:16:41.120Z,100956.91
2022-08-09T17:21:43.388Z,100955.72
2022-08-09T17:26:47.739Z,100943.75
2022-08-09T17:31:49.524Z,100944.69
2022-08-09T17:36:53.404Z,100954.41
2022-08-09T17:41:51.943Z,100942.03
2022-08-09T17:46:55.651Z,100963.84
2022-08-09T17:51:55.306Z,100993.25
2022-08-09T17:56:52.156Z,101023.03
2022-08-09T18:02:06.824Z,101028.91
2022-08-09T18:07:07.688Z,101026.81
2022-08-09T18:12:17.375Z,101030.63
2022-08-09T18:17:27.529Z,101037.09
2022-08-09T18:22:40.114Z,101045.03
2022-08-09T18:28:02.898Z,101017.78
2022-08-09T18:32:57.979Z,101029.38
2022-08-09T18:37:56.122Z,101035.75
2022-08-09T18:42:55.435Z,101048.72
2022-08-09T18:47:52.242Z,101033.25
2022-08-09T18:52:50.977Z,101036.50
2022-08-09T18:57:48.557Z,101042.78
2022-08-09T19:02:45.409Z,101044.44
2022-08-09T19:07:59.027Z,101036.19
2022-08-09T19:13:20.932Z,101039.81
2022-08-09T19:18:33.690Z,101036.03
2022-08-09T19:24:36.356Z,101021.84
2022-08-09T19:28:51.914Z,101011.56
2022-08-09T19:33:49.049Z,101018.41
2022-08-09T19:38:46.004Z,101025.66
2022-08-09T19:44:01.498Z,101020.09
2022-08-09T19:50:07.252Z,101046.75
2022-08-09T19:54:17.394Z,101071.72
2022-08-09T19:59:39.561Z,101100.22
2022-08-09T20:04:40.591Z,101119.38
2022-08-09T20:09:45.899Z,101123.09
2022-08-09T20:14:49.943Z,101128.03
2022-08-09T20:19:54.441Z,101138.16
2022-08-09T20:24:54.077Z,101139.00
2022-08-09T20:29:51.435Z,101139.16
2022-08-09T20:34:50.195Z,101143.03
2022-08-09T20:40:15.496Z,101146.91
2022-08-09T20:45:59.497Z,101160.25
2022-08-09T20:50:47.224Z,101155.84
2022-08-09T20:55:47.370Z,101164.91
2022-08-09T21:01:14.261Z,101173.88
2022-08-09T21:06:16.468Z,101171.44
2022-08-09T21:16:31.888Z,101169.75
2022-08-09T21:21:53.195Z,101170.78
2022-08-09T21:26:47.214Z,101167.03
2022-08-09T21:31:49.422Z,101171.94
2022-08-09T21:36:55.839Z,101167.50
2022-08-09T21:42:00.281Z,101169.94
2022-08-09T21:47:04.656Z,101170.38
2022-08-09T21:52:02.170Z,101179.44
2022-08-09T21:56:58.950Z,101181.06
2022-08-09T22:01:58.865Z,101175.25
2022-08-09T22:07:01.827Z,101188.75
2022-08-09T22:12:18.332Z,101187.69
2022-08-09T22:17:16.471Z,101189.66
2022-08-09T22:22:14.571Z,101193.88
2022-08-09T22:27:13.948Z,101191.31
2022-08-09T22:32:30.341Z,101184.06
2022-08-09T22:37:28.410Z,101174.72
2022-08-09T22:42:38.005Z,101181.53
2022-08-09T22:48:16.724Z,101171.41
2022-08-09T22:52:57.605Z,101161.94
2022-08-09T22:57:59.992Z,101158.81
2022-08-09T23:02:57.193Z,101160.56
2022-08-09T23:08:27.835Z,101153.56
2022-08-09T23:13:27.343Z,101154.19
2022-08-09T23:18:24.178Z,101145.34
2022-08-09T23:23:20.842Z,101147.63
2022-08-09T23:28:17.485Z,101136.16
2022-08-09T23:33:14.773Z,101136.41
2022-08-09T23:38:11.471Z,101144.34
2022-08-09T23:43:08.168Z,101140.41
2022-08-09T23:48:08.680Z,101139.50
2022-08-09T23:53:06.599Z,101143.31
2022-08-09T23:58:09.301Z,101144.16
